This is the latest recevied weather packets stored in our database for station/object K3BAK-13. If no packets are shown the sender has not sent any weather packets the latest 10 day(s).
| Time | Temp. | Humidity | Pressure | Rain* | Wind** | Luminosity | Snow |
|---|---|---|---|---|---|---|---|
| 1777919462 | 21.67° C | 48% | 1009.3 hPa | 0 mm | - | - | - |
| 1777918569 | 21.67° C | 50% | 1009.3 hPa | 0 mm | - | - | - |
| 1777914060 | 20° C | 51% | 1010.4 hPa | 0 mm | - | - | - |
| 1777912270 | 18.89° C | 51% | 1010.9 hPa | 0 mm | - | - | - |
| 1777910762 | 17.78° C | 53% | 1011.1 hPa | 0 mm | - | - | - |
| 1777910477 | 17.78° C | 54% | 1011.1 hPa | 0 mm | - | - | - |
| 1777909565 | 17.22° C | 54% | 1011.4 hPa | 0 mm | - | - | - |
| 1777909263 | 17.22° C | 54% | 1011.6 hPa | 0 mm | - | - | - |
| 1777908061 | 16.67° C | 53% | 1011.7 hPa | 0 mm | - | - | - |
| 1777905960 | 16.11° C | 54% | 1011.8 hPa | 0 mm | - | - | - |
| 1777904158 | 15° C | 54% | 1011.7 hPa | 0 mm | - | - | - |
| 1777899959 | 13.33° C | 57% | 1012.2 hPa | 0 mm | - | - | - |
| 1777899658 | 12.78° C | 57% | 1012.2 hPa | 0 mm | - | - | - |
| 1777899359 | 12.78° C | 59% | 1012.2 hPa | 0 mm | - | - | - |
| 1777898758 | 12.22° C | 60% | 1012.1 hPa | 0 mm | - | - | - |
| 1777897860 | 11.67° C | 61% | 1011.9 hPa | 0 mm | - | - | - |
| 1777897559 | 11.67° C | 61% | 1012 hPa | 0 mm | - | - | - |
| 1777897261 | 11.11° C | 61% | 1011.8 hPa | 0 mm | - | - | - |
| 1777896359 | 10.56° C | 62% | 1011.9 hPa | 0 mm | - | - | - |
| 1777894558 | 10.56° C | 62% | 1012 hPa | 0 mm | - | - | - |
| 1777893359 | 10° C | 62% | 1012.1 hPa | 0 mm | - | - | - |
| 1777891260 | 10° C | 61% | 1012.1 hPa | 0 mm | - | - | - |
| 1777890960 | 10° C | 61% | 1012.1 hPa | 0 mm | - | - | - |
| 1777883759 | 9.44° C | 60% | 1013.1 hPa | 0 mm | - | - | - |
| 1777883460 | 9.44° C | 61% | 1013 hPa | 0 mm | - | - | - |
* Rain latest hour (hover to see other rain measurements)
** Current wind speed in m/s (hover to see current wind gust speed)